< < Back
Terminal Aerodrome Forecast


Current Version              Previous Versions:   1  2  3  4  5  6  7  8  9  

Terminal Aerodrome Forecast

445
FTUS44 KOHX 251100
TAFCSV
TAF
KCSV 251126Z 2512/2612 26003KT P6SM SKC
     FM251900 30006KT P6SM SCT040 OVC150
     FM260500 35002KT P6SM BKN020=

Latest METAR

962
SAUS70 KWBC 260100 RRB
MTRCSV
METAR KCSV 260053Z AUTO 30005KT 10SM CLR 07/M03 A3012 RMK AO2 SLP204
T00721033


USA.gov is the U.S. government's official web portal to all federal, state and local government web resources and services.